Time;durP1;ratioP1;P1;durP2;ratioP2;P2;SDS_P1;SDS_P2;PMS_P1;PMS_P2;Temp;Humidity;BMP_temperature;BMP_pressure;BME280_temperature;BME280_humidity;BME280_pressure;Samples;Min_cycle;Max_cycle;Signal;HPM_P1;HPM_P2
2021/01/29 00:00:09;;;;;;;6.20;5.07;;;5.70;99.90;;;;;;5054058;28;20487;-54
2021/01/29 00:02:36;;;;;;;7.13;4.90;;;5.70;99.90;;;;;;5062233;28;20451;-54
2021/01/29 00:05:03;;;;;;;6.40;4.70;;;5.80;99.90;;;;;;5067734;28;20467;-54
2021/01/29 00:07:30;;;;;;;8.53;5.57;;;5.60;99.90;;;;;;5061158;28;20475;-54
2021/01/29 00:09:57;;;;;;;5.73;4.20;;;5.80;99.90;;;;;;5066664;28;20462;-53
2021/01/29 00:12:24;;;;;;;3.50;3.10;;;5.80;99.90;;;;;;5065923;28;20853;-54
2021/01/29 00:14:51;;;;;;;4.90;3.60;;;5.70;99.90;;;;;;5049583;28;20990;-54
2021/01/29 00:17:18;;;;;;;2.83;2.53;;;5.60;99.90;;;;;;5056745;28;21235;-54
2021/01/29 00:19:44;;;;;;;3.37;3.07;;;5.50;99.90;;;;;;5072455;28;20484;-54
2021/01/29 00:22:11;;;;;;;2.87;2.63;;;5.40;99.90;;;;;;5073134;28;20862;-54
2021/01/29 00:24:39;;;;;;;3.57;2.80;;;5.50;99.90;;;;;;5071938;28;20453;-54
2021/01/29 00:27:06;;;;;;;3.13;2.77;;;5.40;99.90;;;;;;5067735;28;20472;-55
2021/01/29 00:29:32;;;;;;;3.80;3.40;;;5.50;99.90;;;;;;5074162;28;20450;-55
2021/01/29 00:31:59;;;;;;;4.87;3.40;;;5.80;99.90;;;;;;5058621;28;20446;-55
2021/01/29 00:34:26;;;;;;;4.00;3.27;;;5.70;99.90;;;;;;5062504;28;20483;-55
2021/01/29 00:36:52;;;;;;;3.90;3.30;;;5.60;99.90;;;;;;5068692;28;20526;-55
2021/01/29 00:39:19;;;;;;;4.07;3.20;;;5.40;99.90;;;;;;5064631;28;20501;-55
2021/01/29 00:41:46;;;;;;;3.20;2.90;;;5.40;99.90;;;;;;5058305;28;20492;-55
2021/01/29 00:44:13;;;;;;;4.90;2.87;;;5.40;99.90;;;;;;5053666;28;20453;-55
2021/01/29 00:46:39;;;;;;;3.50;2.60;;;5.40;99.90;;;;;;5053503;28;20479;-55
2021/01/29 00:49:06;;;;;;;3.13;2.47;;;5.60;99.90;;;;;;5053670;28;20455;-55
2021/01/29 00:51:32;;;;;;;3.10;2.30;;;5.50;99.90;;;;;;5053613;28;20876;-55
2021/01/29 00:53:58;;;;;;;9.00;5.10;;;5.50;99.90;;;;;;5063500;28;20446;-55
2021/01/29 00:56:25;;;;;;;12.70;6.30;;;5.50;99.90;;;;;;5058982;28;20831;-55
2021/01/29 00:58:52;;;;;;;14.40;7.80;;;5.60;99.90;;;;;;5053652;28;20454;-55
2021/01/29 01:01:19;;;;;;;12.10;6.07;;;5.70;99.90;;;;;;5068034;28;20958;-56
2021/01/29 01:03:45;;;;;;;8.23;6.03;;;5.50;99.90;;;;;;5073136;28;20518;-55
2021/01/29 01:06:12;;;;;;;6.73;5.13;;;5.50;99.90;;;;;;5072971;28;20468;-55
2021/01/29 01:08:41;;;;;;;6.20;4.50;;;5.40;99.90;;;;;;5072431;28;20449;-55
2021/01/29 01:11:08;;;;;;;7.13;4.43;;;5.30;99.90;;;;;;5062524;28;21018;-55
2021/01/29 01:13:34;;;;;;;3.83;2.93;;;5.30;99.90;;;;;;5069074;28;20451;-55
2021/01/29 01:16:02;;;;;;;3.10;2.80;;;5.30;99.90;;;;;;5067435;28;20484;-55
2021/01/29 01:18:28;;;;;;;3.60;2.80;;;5.40;99.90;;;;;;5073263;28;20444;-55
2021/01/29 01:20:55;;;;;;;3.13;2.70;;;5.30;99.90;;;;;;5065887;28;20459;-56
2021/01/29 01:23:21;;;;;;;4.33;2.80;;;5.30;99.90;;;;;;5064747;28;20459;-55
2021/01/29 01:25:48;;;;;;;4.73;3.27;;;5.30;99.90;;;;;;5064151;28;20823;-55
2021/01/29 01:28:14;;;;;;;3.60;2.93;;;5.40;99.90;;;;;;5057979;28;20451;-55
2021/01/29 01:30:42;;;;;;;4.00;2.63;;;5.50;99.90;;;;;;5051912;28;20501;-55
2021/01/29 01:33:10;;;;;;;3.30;3.00;;;5.80;99.90;;;;;;5061829;28;20444;-55
2021/01/29 01:35:36;;;;;;;5.17;3.87;;;5.70;99.90;;;;;;5063371;28;20486;-55
2021/01/29 01:38:03;;;;;;;5.67;3.10;;;5.80;99.90;;;;;;5053998;28;20545;-55
2021/01/29 01:40:33;;;;;;;2.77;2.20;;;5.70;99.90;;;;;;5052726;28;20459;-55
2021/01/29 01:42:59;;;;;;;4.53;3.63;;;5.60;99.90;;;;;;5061624;28;20447;-55
2021/01/29 01:45:56;;;;;;;4.70;3.90;;;5.60;99.90;;;;;;5070401;28;20443;-55
2021/01/29 01:48:46;;;;;;;4.10;3.70;;;5.50;99.90;;;;;;5052754;28;20436;-55
2021/01/29 01:51:18;;;;;;;3.20;2.70;;;5.60;99.90;;;;;;5052562;28;20464;-54
2021/01/29 01:53:48;;;;;;;3.07;2.37;;;5.80;99.90;;;;;;5052576;28;20448;-55
2021/01/29 01:56:21;;;;;;;5.50;3.83;;;5.70;99.90;;;;;;5061192;28;20490;-55
2021/01/29 01:58:51;;;;;;;3.23;2.93;;;5.60;99.90;;;;;;5070317;28;20443;-55
2021/01/29 02:01:20;;;;;;;2.40;2.20;;;5.60;99.90;;;;;;5057746;28;20514;-54
2021/01/29 02:03:49;;;;;;;2.67;2.37;;;5.80;99.90;;;;;;5072088;28;20495;-54
2021/01/29 02:06:16;;;;;;;2.13;2.03;;;5.90;99.90;;;;;;5072030;28;20467;-54
2021/01/29 02:08:46;;;;;;;2.00;1.90;;;5.90;99.90;;;;;;5071696;28;20890;-55
2021/01/29 02:11:14;;;;;;;2.73;2.00;;;5.90;99.90;;;;;;5063251;28;20452;-55
2021/01/29 02:13:41;;;;;;;2.40;2.00;;;5.80;99.90;;;;;;5052559;28;20452;-55
2021/01/29 02:16:15;;;;;;;1.97;1.77;;;5.80;99.90;;;;;;5061717;28;20482;-55
2021/01/29 02:19:06;;;;;;;3.07;2.13;;;5.60;99.90;;;;;;5069403;28;20451;-55
2021/01/29 02:22:10;;;;;;;3.20;2.77;;;5.70;99.90;;;;;;5069625;28;20956;-55
2021/01/29 02:25:10;;;;;;;3.40;2.50;;;5.90;99.90;;;;;;5044963;28;20539;-55
2021/01/29 02:27:56;;;;;;;7.63;3.77;;;5.80;99.90;;;;;;5052192;28;20529;-55
2021/01/29 02:30:51;;;;;;;3.90;3.60;;;5.70;99.90;;;;;;5052233;28;20443;-55
2021/01/29 02:34:08;;;;;;;3.60;2.80;;;5.80;99.90;;;;;;5067460;28;20450;-55
2021/01/29 02:37:07;;;;;;;3.43;3.10;;;5.80;99.90;;;;;;5062112;28;20467;-54
2021/01/29 02:39:56;;;;;;;3.63;3.30;;;5.90;99.90;;;;;;5062059;28;20457;-55
2021/01/29 02:42:39;;;;;;;3.63;2.47;;;5.90;99.90;;;;;;5069265;28;20442;-54
2021/01/29 02:45:18;;;;;;;2.67;2.30;;;5.90;99.90;;;;;;5052944;28;20447;-54
2021/01/29 02:47:53;;;;;;;2.50;1.97;;;5.80;99.90;;;;;;5056190;28;21061;-54
2021/01/29 02:50:33;;;;;;;3.40;3.03;;;5.90;99.90;;;;;;5071148;28;20454;-54
2021/01/29 02:53:10;;;;;;;3.00;1.90;;;6.00;99.90;;;;;;5071846;28;20442;-55
2021/01/29 02:55:40;;;;;;;2.07;1.80;;;5.80;99.90;;;;;;5067682;28;20485;-55
2021/01/29 02:58:12;;;;;;;2.27;1.90;;;5.80;99.90;;;;;;5069881;28;20542;-55
2021/01/29 03:00:44;;;;;;;2.63;2.10;;;5.60;99.90;;;;;;5069755;28;20451;-54
2021/01/29 03:03:16;;;;;;;1.87;1.77;;;5.60;99.90;;;;;;5071248;28;20447;-54
2021/01/29 03:05:49;;;;;;;2.53;1.90;;;5.70;99.90;;;;;;5059119;28;20450;-55
2021/01/29 03:08:22;;;;;;;4.47;4.07;;;5.70;99.90;;;;;;5054527;28;21020;-54
2021/01/29 03:10:56;;;;;;;4.73;4.23;;;5.70;99.90;;;;;;5070790;28;20455;-55
2021/01/29 03:13:29;;;;;;;5.33;4.67;;;5.60;99.90;;;;;;5060641;28;20954;-55
2021/01/29 03:16:00;;;;;;;6.50;4.60;;;5.60;99.90;;;;;;5064202;28;20480;-54
2021/01/29 03:18:33;;;;;;;4.47;4.07;;;5.60;99.90;;;;;;5071036;28;20456;-55
2021/01/29 03:21:05;;;;;;;4.70;4.00;;;5.50;99.90;;;;;;5068524;28;20462;-54
2021/01/29 03:23:38;;;;;;;3.77;3.20;;;5.40;99.90;;;;;;5070793;28;20458;-56
2021/01/29 03:26:13;;;;;;;3.67;3.10;;;5.40;99.90;;;;;;5066202;28;20473;-55
2021/01/29 03:28:47;;;;;;;4.23;3.00;;;5.30;99.90;;;;;;5050788;28;20449;-55
2021/01/29 03:31:15;;;;;;;3.20;2.90;;;5.20;99.90;;;;;;5059687;28;20468;-54
2021/01/29 03:33:46;;;;;;;6.40;2.90;;;5.30;99.90;;;;;;5070742;28;20444;-55
2021/01/29 03:36:18;;;;;;;3.33;3.03;;;5.40;99.90;;;;;;5069863;28;20488;-54
2021/01/29 03:38:49;;;;;;;7.00;3.67;;;5.40;99.90;;;;;;5068965;28;20459;-54
2021/01/29 03:41:22;;;;;;;3.63;3.20;;;5.70;99.90;;;;;;5068515;28;20451;-55
2021/01/29 03:43:59;;;;;;;4.43;3.50;;;5.80;99.90;;;;;;5070451;28;20940;-54
2021/01/29 03:46:35;;;;;;;2.90;2.70;;;5.80;99.90;;;;;;5054632;28;20483;-54
2021/01/29 03:49:10;;;;;;;4.37;3.40;;;5.70;99.90;;;;;;5065206;28;20450;-55
2021/01/29 03:51:48;;;;;;;3.50;3.17;;;5.60;99.90;;;;;;5070793;28;20844;-56
2021/01/29 03:54:22;;;;;;;2.03;1.83;;;5.80;99.90;;;;;;5069758;28;20446;-55
2021/01/29 03:57:06;;;;;;;2.87;2.43;;;5.90;99.90;;;;;;5051746;28;21198;-54
2021/01/29 03:59:38;;;;;;;3.80;2.53;;;6.00;99.90;;;;;;5050767;28;20522;-55
2021/01/29 04:02:14;;;;;;;5.30;4.00;;;5.80;99.90;;;;;;5050592;28;20452;-54
2021/01/29 04:04:52;;;;;;;6.37;4.00;;;5.60;99.90;;;;;;5059366;28;20450;-54
2021/01/29 04:07:24;;;;;;;3.50;3.20;;;5.70;99.90;;;;;;5050746;28;20474;-54
2021/01/29 04:09:56;;;;;;;3.97;3.50;;;5.60;99.90;;;;;;5051677;28;20452;-55
2021/01/29 04:12:30;;;;;;;6.07;3.87;;;5.40;99.90;;;;;;5050522;28;20443;-55
2021/01/29 04:15:04;;;;;;;6.03;4.20;;;5.50;99.90;;;;;;5055865;28;20485;-54
2021/01/29 04:17:35;;;;;;;4.40;3.73;;;5.50;99.90;;;;;;5068432;28;20478;-54
2021/01/29 04:20:13;;;;;;;4.80;3.30;;;5.40;99.90;;;;;;5060979;28;20972;-54
2021/01/29 04:22:41;;;;;;;4.10;2.80;;;5.40;99.90;;;;;;5052223;28;20448;-54
2021/01/29 04:25:16;;;;;;;3.10;2.13;;;5.60;99.90;;;;;;5050114;28;20444;-54
2021/01/29 04:27:48;;;;;;;2.47;2.27;;;5.50;99.90;;;;;;5050249;28;20471;-54
2021/01/29 04:30:19;;;;;;;3.00;2.80;;;5.40;99.90;;;;;;5050409;28;20448;-55
2021/01/29 04:32:51;;;;;;;4.33;2.67;;;5.30;99.90;;;;;;5050336;28;20458;-54
2021/01/29 04:35:21;;;;;;;2.37;1.90;;;5.50;99.90;;;;;;5063439;28;20487;-54
2021/01/29 04:37:57;;;;;;;1.43;1.33;;;5.60;99.90;;;;;;5065260;28;20471;-55
2021/01/29 04:40:28;;;;;;;2.50;1.77;;;5.80;99.90;;;;;;5068101;28;20455;-54
2021/01/29 04:43:06;;;;;;;1.90;1.80;;;5.90;99.90;;;;;;5070361;28;20553;-55
2021/01/29 04:45:52;;;;;;;1.80;1.60;;;5.80;99.90;;;;;;5065584;28;20455;-55
2021/01/29 04:48:27;;;;;;;2.70;1.97;;;5.70;99.90;;;;;;5050077;28;20448;-55
2021/01/29 04:51:21;;;;;;;2.40;2.20;;;5.70;99.90;;;;;;5062101;28;20438;-55
2021/01/29 04:54:24;;;;;;;4.30;2.30;;;5.60;99.90;;;;;;5070222;28;20480;-55
2021/01/29 04:57:50;;;;;;;2.93;2.30;;;5.60;99.90;;;;;;5054113;28;20486;-54
2021/01/29 05:01:07;;;;;;;2.57;2.13;;;5.50;99.90;;;;;;5003766;28;20501;-54
2021/01/29 05:04:02;;;;;;;2.60;2.13;;;5.40;99.90;;;;;;5033591;28;20455;-54
2021/01/29 05:06:41;;;;;;;4.70;2.90;;;5.40;99.90;;;;;;5053402;28;20463;-54
2021/01/29 05:09:46;;;;;;;3.47;2.40;;;5.40;99.90;;;;;;5068835;28;20954;-54
2021/01/29 05:12:44;;;;;;;4.80;2.73;;;5.30;99.90;;;;;;4991511;28;20872;-54
2021/01/29 05:15:33;;;;;;;3.90;2.60;;;5.30;99.90;;;;;;5057435;28;20474;-54
2021/01/29 05:18:28;;;;;;;3.27;2.67;;;5.10;99.90;;;;;;5073244;28;20854;-54
2021/01/29 05:21:20;;;;;;;5.77;2.60;;;5.30;99.90;;;;;;5076833;22;20993;-52
2021/01/29 05:24:11;;;;;;;7.00;2.80;;;5.30;99.90;;;;;;5049852;28;20527;-51
2021/01/29 05:27:02;;;;;;;3.40;2.53;;;5.40;99.90;;;;;;5052446;28;20453;-51
2021/01/29 05:29:39;;;;;;;4.00;2.70;;;5.40;99.90;;;;;;5038368;28;20509;-52
2021/01/29 05:32:40;;;;;;;4.73;2.40;;;5.40;99.90;;;;;;5059063;28;20443;-52
2021/01/29 05:35:29;;;;;;;3.60;2.60;;;5.40;99.90;;;;;;5070022;28;20553;-52
2021/01/29 05:38:15;;;;;;;2.67;2.40;;;5.30;99.90;;;;;;5072618;28;20455;-52
2021/01/29 05:41:39;;;;;;;3.23;2.30;;;5.20;99.90;;;;;;5072849;28;20557;-52
2021/01/29 05:44:38;;;;;;;2.37;2.17;;;5.30;99.90;;;;;;5053599;28;20443;-52
2021/01/29 05:47:22;;;;;;;2.83;1.70;;;5.40;99.90;;;;;;5020430;28;20449;-52
2021/01/29 05:50:06;;;;;;;2.17;1.60;;;5.40;99.90;;;;;;5053701;28;20467;-52
2021/01/29 05:53:04;;;;;;;2.93;1.83;;;5.60;99.90;;;;;;5052634;28;20455;-52
2021/01/29 05:55:45;;;;;;;2.67;2.10;;;5.60;99.90;;;;;;5070537;28;20486;-51
2021/01/29 05:58:44;;;;;;;1.60;1.50;;;5.70;99.90;;;;;;5055464;28;20957;-52
2021/01/29 06:01:50;;;;;;;1.43;1.20;;;5.80;99.90;;;;;;5054593;28;20475;-51
2021/01/29 06:04:42;;;;;;;2.50;1.83;;;5.80;99.90;;;;;;5070068;28;20478;-52
2021/01/29 06:07:37;;;;;;;1.67;1.57;;;5.70;99.90;;;;;;5070015;28;20451;-52
2021/01/29 06:10:28;;;;;;;1.53;1.23;;;5.80;99.90;;;;;;5070652;28;20471;-52
2021/01/29 06:13:16;;;;;;;2.10;1.90;;;5.70;99.90;;;;;;5063951;28;20480;-52
2021/01/29 06:16:05;;;;;;;2.07;1.90;;;5.70;99.90;;;;;;5060528;28;20486;-52
2021/01/29 06:19:09;;;;;;;2.67;1.30;;;5.70;99.90;;;;;;5069771;28;20467;-52
2021/01/29 06:22:09;;;;;;;2.57;1.23;;;5.70;99.90;;;;;;5028033;28;20467;-52
2021/01/29 06:25:14;;;;;;;1.93;1.43;;;5.70;99.90;;;;;;5066802;28;20439;-52
2021/01/29 06:28:16;;;;;;;1.93;1.67;;;5.90;99.90;;;;;;5071826;28;20959;-52
2021/01/29 06:31:01;;;;;;;2.13;1.30;;;5.60;99.90;;;;;;5070911;28;20466;-52
2021/01/29 06:34:07;;;;;;;1.60;1.30;;;5.80;99.90;;;;;;5070072;28;20850;-52
2021/01/29 06:36:49;;;;;;;1.20;1.10;;;6.00;99.90;;;;;;5057334;28;20552;-52
2021/01/29 06:39:26;;;;;;;1.30;1.20;;;6.10;99.90;;;;;;5063084;28;20525;-52
2021/01/29 06:42:30;;;;;;;1.20;1.03;;;6.20;99.90;;;;;;5071772;28;20447;-52
2021/01/29 06:45:29;;;;;;;1.67;1.07;;;6.20;99.90;;;;;;5054322;28;20458;-52
2021/01/29 06:48:29;;;;;;;3.17;1.10;;;6.10;99.90;;;;;;5071466;28;20454;-52
2021/01/29 06:51:17;;;;;;;1.50;1.20;;;6.10;99.90;;;;;;5067864;28;20470;-52
2021/01/29 06:54:14;;;;;;;1.70;1.57;;;6.00;99.90;;;;;;5049655;28;20455;-52
2021/01/29 06:57:15;;;;;;;1.80;1.70;;;6.00;99.90;;;;;;5051306;28;20570;-52
2021/01/29 07:00:09;;;;;;;4.90;2.17;;;6.00;99.90;;;;;;5052725;28;20458;-52
2021/01/29 07:03:14;;;;;;;1.50;1.30;;;5.90;99.90;;;;;;5055412;28;20213;-52
2021/01/29 07:06:01;;;;;;;1.90;1.70;;;5.70;99.90;;;;;;5055936;28;20454;-52
2021/01/29 07:08:50;;;;;;;2.07;1.50;;;6.00;99.90;;;;;;5059711;28;20518;-51
2021/01/29 07:11:30;;;;;;;1.40;1.30;;;6.10;99.90;;;;;;5058450;28;20485;-52
2021/01/29 07:14:28;;;;;;;1.93;1.70;;;6.20;99.90;;;;;;5060247;28;20494;-53
2021/01/29 07:17:06;;;;;;;3.13;1.70;;;6.10;99.90;;;;;;5022270;28;20475;-53
2021/01/29 07:20:01;;;;;;;1.60;1.33;;;6.20;99.90;;;;;;5063786;28;20501;-52
2021/01/29 07:23:07;;;;;;;1.53;1.30;;;6.30;99.90;;;;;;5055922;28;20491;-53
2021/01/29 07:25:42;;;;;;;3.57;1.30;;;6.50;99.90;;;;;;5061668;28;20463;-52
2021/01/29 07:28:25;;;;;;;1.97;1.40;;;6.30;99.90;;;;;;5064283;28;20462;-53
2021/01/29 07:31:12;;;;;;;4.03;1.70;;;6.40;99.90;;;;;;5061702;28;20586;-52
2021/01/29 07:33:46;;;;;;;1.80;1.70;;;6.30;99.90;;;;;;5061802;28;20535;-52
2021/01/29 07:36:46;;;;;;;2.53;1.30;;;6.40;99.90;;;;;;5059624;28;20818;-52
2021/01/29 07:39:45;;;;;;;1.83;1.30;;;6.40;99.90;;;;;;5061247;28;20466;-52
2021/01/29 07:42:46;;;;;;;1.67;0.70;;;6.30;99.90;;;;;;5056220;28;21003;-52
2021/01/29 07:45:35;;;;;;;1.00;0.90;;;6.40;99.90;;;;;;5064488;28;20497;-52
2021/01/29 07:48:36;;;;;;;1.03;0.73;;;6.50;99.90;;;;;;5058152;28;20999;-52
2021/01/29 07:51:09;;;;;;;1.73;1.10;;;6.40;99.90;;;;;;5061926;28;20489;-52
2021/01/29 07:53:49;;;;;;;1.40;1.30;;;6.50;99.90;;;;;;5060880;28;20473;-53
2021/01/29 07:56:36;;;;;;;2.17;1.30;;;6.40;99.90;;;;;;5068537;28;20885;-52
2021/01/29 07:59:15;;;;;;;1.87;1.10;;;6.30;99.90;;;;;;5067794;28;20504;-51
2021/01/29 08:01:54;;;;;;;3.10;1.23;;;6.20;99.90;;;;;;5063661;28;20851;-52
2021/01/29 08:04:44;;;;;;;3.17;1.40;;;6.10;99.90;;;;;;5059966;28;20473;-53
2021/01/29 08:07:17;;;;;;;2.37;1.67;;;6.30;99.90;;;;;;5068791;28;20837;-53
2021/01/29 08:09:51;;;;;;;3.83;1.53;;;6.20;99.90;;;;;;5061231;28;20519;-53
2021/01/29 08:12:20;;;;;;;1.77;0.97;;;6.40;99.90;;;;;;5063534;28;20822;-53
2021/01/29 08:15:23;;;;;;;1.57;0.90;;;6.50;99.90;;;;;;5065727;28;20466;-53
2021/01/29 08:18:14;;;;;;;1.73;1.20;;;6.70;99.90;;;;;;5065632;28;21032;-53
2021/01/29 08:21:07;;;;;;;3.43;1.30;;;6.80;99.90;;;;;;5066068;28;20505;-53
2021/01/29 08:23:40;;;;;;;1.40;1.30;;;6.90;99.90;;;;;;5055750;28;20469;-53
2021/01/29 08:26:34;;;;;;;3.00;2.10;;;6.90;99.90;;;;;;5059878;28;20454;-52
2021/01/29 08:29:37;;;;;;;4.17;1.53;;;6.80;99.90;;;;;;5050951;28;20847;-52
2021/01/29 08:32:48;;;;;;;1.30;1.00;;;6.80;99.90;;;;;;5058544;28;20472;-52
2021/01/29 08:35:29;;;;;;;2.40;1.20;;;7.00;99.90;;;;;;5062967;28;20487;-52
2021/01/29 08:38:03;;;;;;;3.17;0.80;;;7.00;99.90;;;;;;5065863;28;20900;-53
2021/01/29 08:40:35;;;;;;;1.00;0.90;;;7.30;99.90;;;;;;5054631;28;20481;-53
2021/01/29 08:43:34;;;;;;;2.40;1.47;;;7.40;99.90;;;;;;5073415;28;20811;-52
2021/01/29 08:46:22;;;;;;;0.80;0.80;;;7.50;99.90;;;;;;5069408;28;20537;-53
2021/01/29 08:49:23;;;;;;;2.53;1.43;;;7.60;99.90;;;;;;5072394;28;20470;-53
2021/01/29 08:51:54;;;;;;;2.30;1.33;;;7.60;99.90;;;;;;5043650;28;20826;-53
2021/01/29 08:54:37;;;;;;;4.40;1.27;;;7.60;99.90;;;;;;5065827;28;20510;-53
2021/01/29 08:57:14;;;;;;;1.90;0.93;;;7.70;99.90;;;;;;5066902;28;20455;-52
2021/01/29 08:59:42;;;;;;;2.10;1.90;;;7.70;99.90;;;;;;5070556;28;20492;-52
2021/01/29 09:02:30;;;;;;;2.33;1.43;;;7.80;99.90;;;;;;5072254;28;20469;-51
2021/01/29 09:05:01;;;;;;;1.43;1.33;;;7.90;99.90;;;;;;5053807;28;20461;-52
2021/01/29 09:07:30;;;;;;;1.23;1.10;;;7.80;99.90;;;;;;5057137;28;20701;-52
2021/01/29 09:10:09;;;;;;;1.20;1.10;;;7.90;99.90;;;;;;5060871;28;20474;-52
2021/01/29 09:12:37;;;;;;;0.87;0.80;;;7.90;99.90;;;;;;5071993;28;20978;-51
2021/01/29 09:15:15;;;;;;;1.00;0.90;;;8.10;99.90;;;;;;5069096;28;20604;-52
2021/01/29 09:17:47;;;;;;;1.00;0.80;;;8.10;99.90;;;;;;5059217;28;20971;-52
2021/01/29 09:20:14;;;;;;;1.93;1.17;;;8.10;99.90;;;;;;5069422;28;20487;-52
2021/01/29 09:22:52;;;;;;;1.80;1.20;;;8.20;99.90;;;;;;5069630;28;20467;-51
2021/01/29 09:25:23;;;;;;;0.83;0.80;;;8.10;99.90;;;;;;5070319;28;20871;-52
2021/01/29 09:27:56;;;;;;;1.47;0.60;;;7.80;99.90;;;;;;5054740;28;20455;-52
2021/01/29 09:30:29;;;;;;;1.53;0.90;;;7.60;99.90;;;;;;5052648;28;21071;-52
2021/01/29 09:33:00;;;;;;;1.80;1.30;;;7.60;99.90;;;;;;5053127;28;20582;-52
2021/01/29 09:35:39;;;;;;;4.00;1.73;;;7.60;99.90;;;;;;5052657;28;20525;-52
2021/01/29 09:38:11;;;;;;;2.90;1.63;;;7.60;99.90;;;;;;5052825;28;20447;-52
2021/01/29 09:40:48;;;;;;;2.20;1.67;;;7.70;99.90;;;;;;5066501;28;21197;-52
2021/01/29 09:43:26;;;;;;;2.17;1.63;;;7.80;99.90;;;;;;5072421;28;20943;-52
2021/01/29 09:45:55;;;;;;;2.10;1.10;;;8.00;99.90;;;;;;5072660;28;20439;-52
2021/01/29 09:48:25;;;;;;;0.80;0.77;;;8.20;99.90;;;;;;5072574;28;20447;-52
2021/01/29 09:51:04;;;;;;;2.80;0.90;;;8.10;99.90;;;;;;5072083;28;20986;-52
2021/01/29 09:53:35;;;;;;;1.80;0.90;;;8.00;99.90;;;;;;5072621;28;20446;-52
2021/01/29 09:56:13;;;;;;;1.97;0.90;;;8.10;99.90;;;;;;5072325;28;20987;-52
2021/01/29 09:59:19;;;;;;;1.87;1.00;;;8.20;99.90;;;;;;5072551;28;20472;-52
2021/01/29 10:01:56;;;;;;;1.43;0.90;;;8.20;99.90;;;;;;5052576;28;20448;-52
2021/01/29 10:04:29;;;;;;;1.13;0.90;;;8.40;99.90;;;;;;5052320;28;20453;-53
2021/01/29 10:06:59;;;;;;;4.03;2.10;;;8.40;99.90;;;;;;5052362;28;20505;-53
2021/01/29 10:09:29;;;;;;;3.37;2.10;;;8.50;99.90;;;;;;5052138;28;20489;-53
2021/01/29 10:12:06;;;;;;;3.00;1.97;;;8.30;99.90;;;;;;5052448;28;20442;-52
2021/01/29 10:14:40;;;;;;;2.47;1.83;;;8.50;99.90;;;;;;5051905;28;20450;-53
2021/01/29 10:17:21;;;;;;;3.30;2.17;;;8.60;99.90;;;;;;5052079;28;21004;-53
2021/01/29 10:19:54;;;;;;;2.90;2.10;;;8.60;99.90;;;;;;5052628;28;20479;-52
2021/01/29 10:22:45;;;;;;;3.53;2.83;;;8.50;99.90;;;;;;5071782;28;20458;-53
2021/01/29 10:25:22;;;;;;;4.00;3.70;;;8.60;99.90;;;;;;5068987;28;20430;-53
2021/01/29 10:27:53;;;;;;;2.60;1.70;;;8.60;99.90;;;;;;5071489;28;20204;-53
2021/01/29 10:30:27;;;;;;;2.30;1.70;;;8.60;99.90;;;;;;5071493;28;20478;-54
2021/01/29 10:33:05;;;;;;;4.60;1.83;;;8.70;99.90;;;;;;5070896;28;20455;-53
2021/01/29 10:35:37;;;;;;;3.40;1.97;;;8.80;99.90;;;;;;5069572;28;20489;-51
2021/01/29 10:38:08;;;;;;;2.83;1.47;;;8.90;99.90;;;;;;5071394;28;20497;-51
2021/01/29 10:40:38;;;;;;;3.07;1.77;;;9.00;99.90;;;;;;5070744;28;20528;-51
2021/01/29 10:43:15;;;;;;;3.00;1.67;;;9.00;99.90;;;;;;5071757;28;20443;-51
2021/01/29 10:46:15;;;;;;;7.10;1.87;;;9.00;99.90;;;;;;5070987;28;20443;-51
2021/01/29 10:48:53;;;;;;;2.97;2.30;;;9.10;99.90;;;;;;5040604;28;20469;-52
2021/01/29 10:51:35;;;;;;;5.63;2.80;;;9.10;99.90;;;;;;5051246;28;20459;-50
2021/01/29 10:54:05;;;;;;;5.63;2.63;;;9.10;99.90;;;;;;5050827;28;20940;-51
2021/01/29 10:56:43;;;;;;;3.67;2.40;;;8.90;99.90;;;;;;5067834;28;20544;-51
2021/01/29 10:59:17;;;;;;;2.27;1.70;;;8.80;99.90;;;;;;5070638;28;20478;-51
2021/01/29 11:01:48;;;;;;;4.20;2.40;;;8.80;99.90;;;;;;5063062;28;20452;-50
2021/01/29 11:04:22;;;;;;;3.90;3.00;;;9.00;99.90;;;;;;5050118;28;20821;-51
2021/01/29 11:06:51;;;;;;;4.67;3.30;;;9.10;99.90;;;;;;5062916;28;20451;-51
2021/01/29 11:09:28;;;;;;;4.00;3.20;;;9.20;99.90;;;;;;5070562;28;20469;-51
2021/01/29 11:12:17;;;;;;;4.07;3.37;;;9.30;99.90;;;;;;5070580;28;20470;-51
2021/01/29 11:14:51;;;;;;;4.40;3.03;;;9.40;99.90;;;;;;5070373;28;20466;-50
2021/01/29 11:17:22;;;;;;;3.47;2.40;;;9.30;99.90;;;;;;5064254;28;20972;-51
2021/01/29 11:19:52;;;;;;;3.87;2.63;;;9.40;99.90;;;;;;5073644;22;21287;-52
2021/01/29 11:22:39;;;;;;;2.50;1.83;;;9.40;99.90;;;;;;5069888;28;20458;-51
2021/01/29 11:25:41;;;;;;;3.10;1.90;;;9.40;99.90;;;;;;5069539;28;20520;-51
2021/01/29 11:28:17;;;;;;;1.73;1.40;;;9.70;99.90;;;;;;5070025;28;20446;-53
2021/01/29 11:30:54;;;;;;;2.50;0.70;;;9.70;99.90;;;;;;5070386;28;20474;-52
2021/01/29 11:33:26;;;;;;;1.37;0.70;;;9.80;99.90;;;;;;5070410;28;20447;-53
2021/01/29 11:36:00;;;;;;;3.23;1.97;;;10.00;99.90;;;;;;5069972;28;20493;-54
2021/01/29 11:38:42;;;;;;;1.67;0.60;;;10.20;99.90;;;;;;5070235;28;20509;-53
2021/01/29 11:41:47;;;;;;;1.03;0.60;;;10.30;99.90;;;;;;5070551;28;20471;-53
2021/01/29 11:44:24;;;;;;;1.20;0.53;;;10.30;99.90;;;;;;5026413;28;20452;-53
2021/01/29 11:47:00;;;;;;;0.60;0.60;;;10.30;99.90;;;;;;5065815;28;20452;-53
2021/01/29 11:49:30;;;;;;;0.90;0.80;;;10.20;99.90;;;;;;5070528;28;20453;-53
2021/01/29 11:52:07;;;;;;;3.53;0.50;;;10.20;99.90;;;;;;5070093;28;20467;-53
2021/01/29 11:54:44;;;;;;;1.63;0.50;;;9.90;99.90;;;;;;5070049;28;20490;-54
2021/01/29 11:57:13;;;;;;;1.50;0.70;;;9.80;99.90;;;;;;5069936;28;20482;-53
2021/01/29 11:59:50;;;;;;;2.53;0.90;;;9.70;99.90;;;;;;5070059;28;20508;-53
2021/01/29 12:02:29;;;;;;;1.10;0.80;;;9.80;99.90;;;;;;5070449;28;20495;-53
2021/01/29 12:05:10;;;;;;;0.80;0.50;;;9.80;99.90;;;;;;5069914;28;20447;-54
2021/01/29 12:07:46;;;;;;;0.97;0.70;;;9.60;99.90;;;;;;5069793;28;20469;-53
2021/01/29 12:10:20;;;;;;;0.70;0.50;;;9.40;99.90;;;;;;5070001;28;20462;-52
2021/01/29 12:12:54;;;;;;;2.63;0.70;;;9.40;99.90;;;;;;5050585;28;20450;-52
2021/01/29 12:15:34;;;;;;;0.60;0.50;;;9.10;99.90;;;;;;5052215;28;20931;-52
2021/01/29 12:18:04;;;;;;;0.60;0.50;;;8.80;99.90;;;;;;5054411;28;20452;-52
2021/01/29 12:20:35;;;;;;;0.80;0.80;;;8.40;99.90;;;;;;5054436;28;20528;-52
2021/01/29 12:23:30;;;;;;;1.43;0.60;;;8.30;99.90;;;;;;5064376;28;20451;-52
2021/01/29 12:26:08;;;;;;;0.70;0.50;;;8.20;99.90;;;;;;5071900;28;20447;-52
2021/01/29 12:28:55;;;;;;;0.60;0.40;;;8.20;99.90;;;;;;5054220;28;20474;-52
2021/01/29 12:31:31;;;;;;;0.50;0.40;;;8.10;99.90;;;;;;5054305;28;20466;-52
2021/01/29 12:34:04;;;;;;;0.50;0.37;;;7.80;99.90;;;;;;5054179;28;20443;-52
2021/01/29 12:36:33;;;;;;;0.60;0.50;;;7.60;99.90;;;;;;5054142;28;20476;-52
2021/01/29 12:39:04;;;;;;;1.23;0.40;;;7.40;99.90;;;;;;5067410;28;20955;-52
2021/01/29 12:41:39;;;;;;;0.80;0.40;;;7.40;99.90;;;;;;5073977;28;20479;-52
2021/01/29 12:44:24;;;;;;;0.60;0.40;;;7.60;99.90;;;;;;5074066;28;20804;-52
2021/01/29 12:46:58;;;;;;;0.57;0.40;;;7.60;99.90;;;;;;5074095;28;20966;-52
2021/01/29 12:49:35;;;;;;;2.73;0.40;;;7.40;99.90;;;;;;5073815;28;20454;-52
2021/01/29 12:52:06;;;;;;;0.60;0.57;;;7.20;99.90;;;;;;5074119;28;20448;-52
2021/01/29 12:54:39;;;;;;;0.60;0.47;;;7.40;99.90;;;;;;5073396;28;20465;-52
2021/01/29 12:57:11;;;;;;;0.70;0.43;;;7.40;99.90;;;;;;5073838;28;20558;-52
2021/01/29 12:59:44;;;;;;;0.70;0.47;;;7.40;99.90;;;;;;5073583;28;20466;-52
2021/01/29 13:02:27;;;;;;;0.50;0.30;;;7.40;99.90;;;;;;5073430;28;20455;-52
2021/01/29 13:04:58;;;;;;;0.60;0.60;;;7.20;99.90;;;;;;5073311;28;20672;-52
2021/01/29 13:07:27;;;;;;;0.90;0.70;;;7.10;99.90;;;;;;5073596;28;20450;-52
2021/01/29 13:10:10;;;;;;;1.10;0.60;;;7.20;99.90;;;;;;5072162;28;20473;-52
2021/01/29 13:13:00;;;;;;;1.80;0.70;;;7.10;99.90;;;;;;5073662;28;20444;-52
2021/01/29 13:15:51;;;;;;;1.43;0.53;;;7.10;99.90;;;;;;5073004;28;20567;-52
2021/01/29 13:18:23;;;;;;;0.60;0.40;;;7.20;99.90;;;;;;5072799;28;20450;-52
2021/01/29 13:20:53;;;;;;;0.60;0.60;;;7.20;99.90;;;;;;5073134;28;20532;-52
2021/01/29 13:23:23;;;;;;;0.60;0.40;;;7.30;99.90;;;;;;5072556;28;20524;-52
2021/01/29 13:26:03;;;;;;;0.50;0.40;;;7.50;99.90;;;;;;5072693;28;20458;-52
2021/01/29 13:28:32;;;;;;;0.53;0.40;;;7.60;99.90;;;;;;5072949;28;20530;-52
2021/01/29 13:31:12;;;;;;;0.53;0.40;;;7.60;99.90;;;;;;5073163;28;20838;-52
2021/01/29 13:33:50;;;;;;;1.00;0.60;;;7.60;99.90;;;;;;5073470;28;20814;-52
2021/01/29 13:36:24;;;;;;;1.30;0.90;;;7.60;99.90;;;;;;5072519;28;20486;-53
2021/01/29 13:38:51;;;;;;;1.10;0.70;;;7.70;99.90;;;;;;5072626;28;20453;-52
2021/01/29 13:41:21;;;;;;;1.20;0.83;;;7.90;99.90;;;;;;5072272;28;20459;-52
2021/01/29 13:43:49;;;;;;;2.10;0.93;;;8.00;99.90;;;;;;5072848;28;20455;-53
2021/01/29 13:46:29;;;;;;;1.13;1.00;;;7.90;99.90;;;;;;5072322;28;20443;-53
2021/01/29 13:49:13;;;;;;;0.73;0.73;;;7.90;99.90;;;;;;5072842;28;20453;-53
2021/01/29 13:51:40;;;;;;;0.73;0.60;;;8.00;99.90;;;;;;5072325;28;20490;-53
2021/01/29 13:54:12;;;;;;;0.83;0.63;;;8.10;99.90;;;;;;5072850;28;20458;-52
2021/01/29 13:56:46;;;;;;;3.23;0.90;;;8.10;99.90;;;;;;5072021;28;20537;-53
2021/01/29 13:59:21;;;;;;;1.10;0.77;;;8.10;99.90;;;;;;5072170;28;20458;-53